sensor_id;sensor_type;location;lat;lon;timestamp;temperature;humidity
8591;DHT22;4333;48.322;14.340;2022-12-18T00:01:47;-3.20;99.90
8591;DHT22;4333;48.322;14.340;2022-12-18T00:04:24;-3.30;99.90
8591;DHT22;4333;48.322;14.340;2022-12-18T00:06:50;-3.40;99.90
8591;DHT22;4333;48.322;14.340;2022-12-18T00:09:16;-3.40;99.90
8591;DHT22;4333;48.322;14.340;2022-12-18T00:11:42;-3.60;99.90
8591;DHT22;4333;48.322;14.340;2022-12-18T00:14:11;-3.70;99.90
8591;DHT22;4333;48.322;14.340;2022-12-18T00:16:36;-3.90;99.90
8591;DHT22;4333;48.322;14.340;2022-12-18T00:19:03;-4.10;99.90
8591;DHT22;4333;48.322;14.340;2022-12-18T00:21:31;-4.30;99.90
8591;DHT22;4333;48.322;14.340;2022-12-18T00:23:58;-4.40;99.90
8591;DHT22;4333;48.322;14.340;2022-12-18T00:26:27;-4.40;99.90
8591;DHT22;4333;48.322;14.340;2022-12-18T00:28:53;-4.30;99.90
8591;DHT22;4333;48.322;14.340;2022-12-18T00:31:24;-4.30;99.90
8591;DHT22;4333;48.322;14.340;2022-12-18T00:33:51;-4.40;99.90
8591;DHT22;4333;48.322;14.340;2022-12-18T00:36:21;-4.40;99.90
8591;DHT22;4333;48.322;14.340;2022-12-18T00:38:48;-4.40;99.90
8591;DHT22;4333;48.322;14.340;2022-12-18T00:41:15;-4.40;99.90
8591;DHT22;4333;48.322;14.340;2022-12-18T00:44:05;-4.50;99.90
8591;DHT22;4333;48.322;14.340;2022-12-18T00:46:33;-4.70;99.90
8591;DHT22;4333;48.322;14.340;2022-12-18T00:48:58;-4.80;99.90
8591;DHT22;4333;48.322;14.340;2022-12-18T00:51:25;-4.80;99.90
8591;DHT22;4333;48.322;14.340;2022-12-18T00:53:52;-4.80;99.90
8591;DHT22;4333;48.322;14.340;2022-12-18T00:56:21;-4.80;99.90
8591;DHT22;4333;48.322;14.340;2022-12-18T00:58:47;-4.90;99.90
8591;DHT22;4333;48.322;14.340;2022-12-18T01:01:13;-5.00;99.90
8591;DHT22;4333;48.322;14.340;2022-12-18T01:03:39;-5.00;99.90
8591;DHT22;4333;48.322;14.340;2022-12-18T01:06:07;-5.10;99.90
8591;DHT22;4333;48.322;14.340;2022-12-18T01:08:33;-5.20;99.90
8591;DHT22;4333;48.322;14.340;2022-12-18T01:10:59;-5.20;99.90
8591;DHT22;4333;48.322;14.340;2022-12-18T01:13:25;-5.20;99.90
8591;DHT22;4333;48.322;14.340;2022-12-18T01:15:51;-5.20;99.90
8591;DHT22;4333;48.322;14.340;2022-12-18T01:18:17;-5.20;99.90
8591;DHT22;4333;48.322;14.340;2022-12-18T01:20:42;-5.20;99.90
8591;DHT22;4333;48.322;14.340;2022-12-18T01:23:08;-5.20;99.90
8591;DHT22;4333;48.322;14.340;2022-12-18T01:25:36;-5.30;99.90
8591;DHT22;4333;48.322;14.340;2022-12-18T01:28:02;-5.20;99.90
8591;DHT22;4333;48.322;14.340;2022-12-18T01:30:28;-5.20;99.90
8591;DHT22;4333;48.322;14.340;2022-12-18T01:32:54;-5.20;99.90
8591;DHT22;4333;48.322;14.340;2022-12-18T01:35:20;-5.20;99.90
8591;DHT22;4333;48.322;14.340;2022-12-18T01:37:46;-5.20;99.90
8591;DHT22;4333;48.322;14.340;2022-12-18T01:40:12;-5.40;99.90
8591;DHT22;4333;48.322;14.340;2022-12-18T01:42:38;-5.50;99.90
8591;DHT22;4333;48.322;14.340;2022-12-18T01:45:30;-5.40;99.90
8591;DHT22;4333;48.322;14.340;2022-12-18T01:48:03;-5.20;99.90
8591;DHT22;4333;48.322;14.340;2022-12-18T01:50:36;-5.20;99.90
8591;DHT22;4333;48.322;14.340;2022-12-18T01:53:18;-5.20;99.90
8591;DHT22;4333;48.322;14.340;2022-12-18T01:55:53;-5.20;99.90
8591;DHT22;4333;48.322;14.340;2022-12-18T01:58:23;-5.20;99.90
8591;DHT22;4333;48.322;14.340;2022-12-18T02:00:49;-5.20;99.90
8591;DHT22;4333;48.322;14.340;2022-12-18T02:03:15;-5.20;99.90
8591;DHT22;4333;48.322;14.340;2022-12-18T02:22:11;-4.90;99.90
8591;DHT22;4333;48.322;14.340;2022-12-18T02:25:24;-5.00;99.90
8591;DHT22;4333;48.322;14.340;2022-12-18T02:27:56;-4.90;99.90
8591;DHT22;4333;48.322;14.340;2022-12-18T02:30:24;-5.00;99.90
8591;DHT22;4333;48.322;14.340;2022-12-18T02:32:55;-4.90;99.90
8591;DHT22;4333;48.322;14.340;2022-12-18T02:35:27;-4.90;99.90
8591;DHT22;4333;48.322;14.340;2022-12-18T02:37:55;-4.90;99.90
8591;DHT22;4333;48.322;14.340;2022-12-18T02:40:24;-4.90;99.90
8591;DHT22;4333;48.322;14.340;2022-12-18T02:42:50;-4.80;99.90
8591;DHT22;4333;48.322;14.340;2022-12-18T02:45:16;-4.80;99.90
8591;DHT22;4333;48.322;14.340;2022-12-18T02:47:47;-4.80;99.90
8591;DHT22;4333;48.322;14.340;2022-12-18T02:53:10;-5.00;99.90
8591;DHT22;4333;48.322;14.340;2022-12-18T02:56:06;-5.00;99.90
8591;DHT22;4333;48.322;14.340;2022-12-18T02:59:21;-5.10;99.90
8591;DHT22;4333;48.322;14.340;2022-12-18T03:02:38;-5.20;99.90
8591;DHT22;4333;48.322;14.340;2022-12-18T03:04:52;-5.30;99.90
8591;DHT22;4333;48.322;14.340;2022-12-18T03:07:46;-5.30;99.90
8591;DHT22;4333;48.322;14.340;2022-12-18T03:10:16;-5.30;99.90
8591;DHT22;4333;48.322;14.340;2022-12-18T03:13:00;-5.30;99.90
8591;DHT22;4333;48.322;14.340;2022-12-18T03:15:47;-5.20;99.90
8591;DHT22;4333;48.322;14.340;2022-12-18T03:18:17;-5.30;99.90
8591;DHT22;4333;48.322;14.340;2022-12-18T03:20:46;-5.40;99.90
8591;DHT22;4333;48.322;14.340;2022-12-18T03:23:17;-5.60;99.90
8591;DHT22;4333;48.322;14.340;2022-12-18T03:25:44;-5.70;99.90
8591;DHT22;4333;48.322;14.340;2022-12-18T03:28:19;-5.80;99.90
8591;DHT22;4333;48.322;14.340;2022-12-18T03:30:49;-5.70;99.90
8591;DHT22;4333;48.322;14.340;2022-12-18T03:33:19;-5.80;99.90
8591;DHT22;4333;48.322;14.340;2022-12-18T03:35:52;-5.90;99.90
8591;DHT22;4333;48.322;14.340;2022-12-18T03:38:18;-6.00;99.90
8591;DHT22;4333;48.322;14.340;2022-12-18T03:40:56;-6.10;99.90
8591;DHT22;4333;48.322;14.340;2022-12-18T03:46:28;-6.00;99.90
8591;DHT22;4333;48.322;14.340;2022-12-18T03:49:25;-5.90;99.90
8591;DHT22;4333;48.322;14.340;2022-12-18T03:55:07;-5.90;99.90
8591;DHT22;4333;48.322;14.340;2022-12-18T03:57:35;-5.90;99.90
8591;DHT22;4333;48.322;14.340;2022-12-18T04:00:09;-5.80;99.90
8591;DHT22;4333;48.322;14.340;2022-12-18T04:02:38;-5.70;99.90
8591;DHT22;4333;48.322;14.340;2022-12-18T04:05:07;-5.80;99.90
8591;DHT22;4333;48.322;14.340;2022-12-18T04:07:35;-5.80;99.90
8591;DHT22;4333;48.322;14.340;2022-12-18T04:10:06;-5.70;99.90
8591;DHT22;4333;48.322;14.340;2022-12-18T04:12:32;-5.70;99.90
8591;DHT22;4333;48.322;14.340;2022-12-18T04:14:58;-5.70;99.90
8591;DHT22;4333;48.322;14.340;2022-12-18T04:17:23;-5.70;99.90
8591;DHT22;4333;48.322;14.340;2022-12-18T04:19:49;-5.80;99.90
8591;DHT22;4333;48.322;14.340;2022-12-18T04:22:17;-5.70;99.90
8591;DHT22;4333;48.322;14.340;2022-12-18T04:24:43;-5.70;99.90
8591;DHT22;4333;48.322;14.340;2022-12-18T04:27:09;-5.70;99.90
8591;DHT22;4333;48.322;14.340;2022-12-18T04:29:35;-5.70;99.90
8591;DHT22;4333;48.322;14.340;2022-12-18T04:32:01;-5.80;99.90
8591;DHT22;4333;48.322;14.340;2022-12-18T04:34:27;-5.90;99.90
8591;DHT22;4333;48.322;14.340;2022-12-18T04:36:53;-6.00;99.90
8591;DHT22;4333;48.322;14.340;2022-12-18T04:39:18;-6.00;99.90
8591;DHT22;4333;48.322;14.340;2022-12-18T04:41:44;-6.20;99.90
8591;DHT22;4333;48.322;14.340;2022-12-18T04:44:10;-6.30;99.90
8591;DHT22;4333;48.322;14.340;2022-12-18T04:46:36;-6.30;99.90
8591;DHT22;4333;48.322;14.340;2022-12-18T04:49:11;-6.30;99.90
8591;DHT22;4333;48.322;14.340;2022-12-18T04:51:40;-6.30;99.90
8591;DHT22;4333;48.322;14.340;2022-12-18T04:54:06;-6.20;99.90
8591;DHT22;4333;48.322;14.340;2022-12-18T04:56:32;-6.40;99.90
8591;DHT22;4333;48.322;14.340;2022-12-18T04:58:57;-6.30;99.90
8591;DHT22;4333;48.322;14.340;2022-12-18T05:01:23;-6.30;99.90
8591;DHT22;4333;48.322;14.340;2022-12-18T05:03:51;-6.40;99.90
8591;DHT22;4333;48.322;14.340;2022-12-18T05:06:19;-6.50;99.90
8591;DHT22;4333;48.322;14.340;2022-12-18T05:08:45;-6.50;99.90
8591;DHT22;4333;48.322;14.340;2022-12-18T05:11:14;-6.60;99.90
8591;DHT22;4333;48.322;14.340;2022-12-18T05:13:42;-6.60;99.90
8591;DHT22;4333;48.322;14.340;2022-12-18T05:16:08;-6.60;99.90
8591;DHT22;4333;48.322;14.340;2022-12-18T05:18:37;-6.50;99.90
8591;DHT22;4333;48.322;14.340;2022-12-18T05:21:03;-6.60;99.90
8591;DHT22;4333;48.322;14.340;2022-12-18T05:23:29;-6.70;99.90
8591;DHT22;4333;48.322;14.340;2022-12-18T05:25:58;-6.70;99.90
8591;DHT22;4333;48.322;14.340;2022-12-18T05:28:26;-6.70;99.90
8591;DHT22;4333;48.322;14.340;2022-12-18T05:30:55;-6.70;99.90
8591;DHT22;4333;48.322;14.340;2022-12-18T05:33:28;-6.70;99.90
8591;DHT22;4333;48.322;14.340;2022-12-18T05:35:56;-6.70;99.90
8591;DHT22;4333;48.322;14.340;2022-12-18T05:38:24;-6.70;99.90
8591;DHT22;4333;48.322;14.340;2022-12-18T05:40:51;-6.80;99.90
8591;DHT22;4333;48.322;14.340;2022-12-18T05:43:18;-6.90;99.90
8591;DHT22;4333;48.322;14.340;2022-12-18T05:45:45;-7.10;99.90
8591;DHT22;4333;48.322;14.340;2022-12-18T05:48:14;-7.10;99.90
8591;DHT22;4333;48.322;14.340;2022-12-18T05:50:42;-7.10;99.90
8591;DHT22;4333;48.322;14.340;2022-12-18T05:53:11;-7.20;99.90
8591;DHT22;4333;48.322;14.340;2022-12-18T05:55:38;-7.20;99.90
8591;DHT22;4333;48.322;14.340;2022-12-18T05:58:06;-7.10;99.90
8591;DHT22;4333;48.322;14.340;2022-12-18T06:00:36;-7.10;99.90
8591;DHT22;4333;48.322;14.340;2022-12-18T06:03:06;-7.10;99.90
8591;DHT22;4333;48.322;14.340;2022-12-18T06:05:42;-7.10;99.90
8591;DHT22;4333;48.322;14.340;2022-12-18T06:08:09;-7.30;99.90
8591;DHT22;4333;48.322;14.340;2022-12-18T06:10:37;-7.40;99.90
8591;DHT22;4333;48.322;14.340;2022-12-18T06:13:05;-7.50;99.90
8591;DHT22;4333;48.322;14.340;2022-12-18T06:15:31;-7.60;99.90
8591;DHT22;4333;48.322;14.340;2022-12-18T06:17:58;-7.70;99.90
8591;DHT22;4333;48.322;14.340;2022-12-18T06:20:23;-7.60;99.90
8591;DHT22;4333;48.322;14.340;2022-12-18T06:22:49;-7.50;99.90
8591;DHT22;4333;48.322;14.340;2022-12-18T06:25:15;-7.60;99.90
8591;DHT22;4333;48.322;14.340;2022-12-18T06:27:41;-7.60;99.90
8591;DHT22;4333;48.322;14.340;2022-12-18T06:30:08;-7.70;99.90
8591;DHT22;4333;48.322;14.340;2022-12-18T06:32:34;-7.70;99.90
8591;DHT22;4333;48.322;14.340;2022-12-18T06:34:59;-7.60;99.90
8591;DHT22;4333;48.322;14.340;2022-12-18T06:37:28;-7.50;99.90
8591;DHT22;4333;48.322;14.340;2022-12-18T06:39:54;-7.50;99.90
8591;DHT22;4333;48.322;14.340;2022-12-18T06:42:23;-7.40;99.90
8591;DHT22;4333;48.322;14.340;2022-12-18T06:44:49;-7.50;99.90
8591;DHT22;4333;48.322;14.340;2022-12-18T06:47:15;-7.60;99.90
8591;DHT22;4333;48.322;14.340;2022-12-18T06:49:41;-7.50;99.90
8591;DHT22;4333;48.322;14.340;2022-12-18T06:52:06;-7.40;99.90
8591;DHT22;4333;48.322;14.340;2022-12-18T06:54:32;-7.50;99.90
8591;DHT22;4333;48.322;14.340;2022-12-18T06:56:58;-7.40;99.90
8591;DHT22;4333;48.322;14.340;2022-12-18T06:59:24;-7.40;99.90
8591;DHT22;4333;48.322;14.340;2022-12-18T07:01:49;-7.30;99.90
8591;DHT22;4333;48.322;14.340;2022-12-18T07:04:15;-7.30;99.90
8591;DHT22;4333;48.322;14.340;2022-12-18T07:06:41;-7.30;99.90
8591;DHT22;4333;48.322;14.340;2022-12-18T07:09:07;-7.30;99.90
8591;DHT22;4333;48.322;14.340;2022-12-18T07:11:33;-7.20;99.90
8591;DHT22;4333;48.322;14.340;2022-12-18T07:13:59;-7.20;99.90
8591;DHT22;4333;48.322;14.340;2022-12-18T07:16:26;-7.10;99.90
8591;DHT22;4333;48.322;14.340;2022-12-18T07:18:56;-7.10;99.90
8591;DHT22;4333;48.322;14.340;2022-12-18T07:21:23;-7.10;99.90
8591;DHT22;4333;48.322;14.340;2022-12-18T07:23:52;-7.10;99.90
8591;DHT22;4333;48.322;14.340;2022-12-18T07:26:20;-7.10;99.90
8591;DHT22;4333;48.322;14.340;2022-12-18T07:28:46;-7.00;99.90
8591;DHT22;4333;48.322;14.340;2022-12-18T07:31:19;-7.00;99.90
8591;DHT22;4333;48.322;14.340;2022-12-18T07:33:45;-6.90;99.90
8591;DHT22;4333;48.322;14.340;2022-12-18T07:36:12;-6.90;99.90
8591;DHT22;4333;48.322;14.340;2022-12-18T07:38:38;-6.90;99.90
8591;DHT22;4333;48.322;14.340;2022-12-18T07:41:09;-6.90;99.90
8591;DHT22;4333;48.322;14.340;2022-12-18T07:43:35;-7.10;99.90
8591;DHT22;4333;48.322;14.340;2022-12-18T07:46:01;-7.10;99.90
8591;DHT22;4333;48.322;14.340;2022-12-18T07:48:28;-7.00;99.90
8591;DHT22;4333;48.322;14.340;2022-12-18T07:50:58;-7.20;99.90
8591;DHT22;4333;48.322;14.340;2022-12-18T07:53:24;-7.30;99.90
8591;DHT22;4333;48.322;14.340;2022-12-18T07:55:55;-7.40;99.90
8591;DHT22;4333;48.322;14.340;2022-12-18T07:58:21;-7.40;99.90
8591;DHT22;4333;48.322;14.340;2022-12-18T08:00:47;-7.30;99.90
8591;DHT22;4333;48.322;14.340;2022-12-18T08:03:16;-7.10;99.90
8591;DHT22;4333;48.322;14.340;2022-12-18T08:05:42;-7.00;99.90
8591;DHT22;4333;48.322;14.340;2022-12-18T08:08:07;-7.00;99.90
8591;DHT22;4333;48.322;14.340;2022-12-18T08:10:33;-7.10;99.90
8591;DHT22;4333;48.322;14.340;2022-12-18T08:13:01;-7.20;99.90
8591;DHT22;4333;48.322;14.340;2022-12-18T08:15:27;-7.10;99.90
8591;DHT22;4333;48.322;14.340;2022-12-18T08:17:56;-7.00;99.90
8591;DHT22;4333;48.322;14.340;2022-12-18T08:20:22;-6.90;99.90
8591;DHT22;4333;48.322;14.340;2022-12-18T08:22:48;-6.80;99.90
8591;DHT22;4333;48.322;14.340;2022-12-18T08:25:14;-6.80;99.90
8591;DHT22;4333;48.322;14.340;2022-12-18T08:27:39;-6.90;99.90
8591;DHT22;4333;48.322;14.340;2022-12-18T08:30:06;-7.00;99.90
8591;DHT22;4333;48.322;14.340;2022-12-18T08:32:32;-6.90;99.90
8591;DHT22;4333;48.322;14.340;2022-12-18T08:34:58;-6.60;99.90
8591;DHT22;4333;48.322;14.340;2022-12-18T08:37:24;-6.50;99.90
8591;DHT22;4333;48.322;14.340;2022-12-18T08:39:50;-6.60;99.90
8591;DHT22;4333;48.322;14.340;2022-12-18T08:42:16;-6.70;99.90
8591;DHT22;4333;48.322;14.340;2022-12-18T08:45:00;-6.40;99.90
8591;DHT22;4333;48.322;14.340;2022-12-18T08:47:26;-6.10;99.90
8591;DHT22;4333;48.322;14.340;2022-12-18T08:49:52;-5.50;99.90
8591;DHT22;4333;48.322;14.340;2022-12-18T08:52:18;-4.20;99.90
8591;DHT22;4333;48.322;14.340;2022-12-18T08:54:44;-2.40;99.90
8591;DHT22;4333;48.322;14.340;2022-12-18T08:57:09;-0.80;99.90
8591;DHT22;4333;48.322;14.340;2022-12-18T08:59:35;0.30;99.90
8591;DHT22;4333;48.322;14.340;2022-12-18T09:02:01;0.90;99.90
8591;DHT22;4333;48.322;14.340;2022-12-18T09:04:27;0.60;73.30
8591;DHT22;4333;48.322;14.340;2022-12-18T09:06:56;-0.10;61.80
8591;DHT22;4333;48.322;14.340;2022-12-18T09:09:21;-0.70;67.00
8591;DHT22;4333;48.322;14.340;2022-12-18T09:11:47;-0.60;67.60
8591;DHT22;4333;48.322;14.340;2022-12-18T09:14:13;-0.30;65.10
8591;DHT22;4333;48.322;14.340;2022-12-18T09:16:39;0.10;64.00
8591;DHT22;4333;48.322;14.340;2022-12-18T09:19:04;0.90;63.10
8591;DHT22;4333;48.322;14.340;2022-12-18T09:21:40;1.90;57.70
8591;DHT22;4333;48.322;14.340;2022-12-18T09:24:12;2.30;44.50
8591;DHT22;4333;48.322;14.340;2022-12-18T09:26:41;2.80;38.00
8591;DHT22;4333;48.322;14.340;2022-12-18T09:29:06;3.10;34.30
8591;DHT22;4333;48.322;14.340;2022-12-18T09:31:32;3.30;30.70
8591;DHT22;4333;48.322;14.340;2022-12-18T09:33:58;3.40;28.70
8591;DHT22;4333;48.322;14.340;2022-12-18T09:36:24;3.30;26.50
8591;DHT22;4333;48.322;14.340;2022-12-18T09:38:50;2.80;25.60
8591;DHT22;4333;48.322;14.340;2022-12-18T09:41:39;2.00;27.00
8591;DHT22;4333;48.322;14.340;2022-12-18T09:44:39;1.80;31.80
8591;DHT22;4333;48.322;14.340;2022-12-18T09:47:20;1.90;34.40
8591;DHT22;4333;48.322;14.340;2022-12-18T09:49:58;1.90;34.40
8591;DHT22;4333;48.322;14.340;2022-12-18T09:52:53;1.70;35.50
8591;DHT22;4333;48.322;14.340;2022-12-18T09:55:41;1.50;37.90
8591;DHT22;4333;48.322;14.340;2022-12-18T09:58:36;1.10;39.30
8591;DHT22;4333;48.322;14.340;2022-12-18T10:01:01;0.90;41.50
8591;DHT22;4333;48.322;14.340;2022-12-18T10:03:27;-0.10;45.50
8591;DHT22;4333;48.322;14.340;2022-12-18T10:09:13;-0.40;58.60
8591;DHT22;4333;48.322;14.340;2022-12-18T10:12:16;-0.20;61.00
8591;DHT22;4333;48.322;14.340;2022-12-18T10:15:00;0.00;58.80
8591;DHT22;4333;48.322;14.340;2022-12-18T10:18:46;0.20;58.60
8591;DHT22;4333;48.322;14.340;2022-12-18T10:20:45;-0.10;57.90
8591;DHT22;4333;48.322;14.340;2022-12-18T10:26:09;0.70;65.70
8591;DHT22;4333;48.322;14.340;2022-12-18T10:28:40;1.70;62.40
8591;DHT22;4333;48.322;14.340;2022-12-18T10:31:07;2.00;55.90
8591;DHT22;4333;48.322;14.340;2022-12-18T10:33:38;2.50;50.90
8591;DHT22;4333;48.322;14.340;2022-12-18T10:36:04;2.50;44.50
8591;DHT22;4333;48.322;14.340;2022-12-18T10:38:32;2.40;49.30
8591;DHT22;4333;48.322;14.340;2022-12-18T10:43:37;2.70;42.60
8591;DHT22;4333;48.322;14.340;2022-12-18T10:48:56;2.60;44.70
8591;DHT22;4333;48.322;14.340;2022-12-18T10:51:33;2.10;43.50
8591;DHT22;4333;48.322;14.340;2022-12-18T10:54:00;1.80;46.40
8591;DHT22;4333;48.322;14.340;2022-12-18T10:56:28;2.00;53.00
8591;DHT22;4333;48.322;14.340;2022-12-18T10:58:58;2.20;51.60
8591;DHT22;4333;48.322;14.340;2022-12-18T11:01:25;2.40;52.10
8591;DHT22;4333;48.322;14.340;2022-12-18T11:06:23;2.70;50.00
8591;DHT22;4333;48.322;14.340;2022-12-18T11:09:04;2.60;48.40
8591;DHT22;4333;48.322;14.340;2022-12-18T11:11:32;2.50;48.50
8591;DHT22;4333;48.322;14.340;2022-12-18T11:16:27;1.80;49.70
8591;DHT22;4333;48.322;14.340;2022-12-18T11:18:53;1.60;52.80
8591;DHT22;4333;48.322;14.340;2022-12-18T11:21:20;1.50;54.50
8591;DHT22;4333;48.322;14.340;2022-12-18T11:23:53;1.30;56.30
8591;DHT22;4333;48.322;14.340;2022-12-18T11:26:20;0.70;56.60
8591;DHT22;4333;48.322;14.340;2022-12-18T11:28:50;0.10;64.50
8591;DHT22;4333;48.322;14.340;2022-12-18T11:34:06;0.10;72.60
8591;DHT22;4333;48.322;14.340;2022-12-18T11:36:42;0.30;72.90
8591;DHT22;4333;48.322;14.340;2022-12-18T11:42:14;0.30;70.80
8591;DHT22;4333;48.322;14.340;2022-12-18T11:44:48;0.20;72.70
8591;DHT22;4333;48.322;14.340;2022-12-18T11:50:01;0.90;68.80
8591;DHT22;4333;48.322;14.340;2022-12-18T11:52:36;1.10;66.00
8591;DHT22;4333;48.322;14.340;2022-12-18T11:55:11;0.80;60.00
8591;DHT22;4333;48.322;14.340;2022-12-18T11:58:03;1.10;68.80
8591;DHT22;4333;48.322;14.340;2022-12-18T12:00:38;1.60;59.90
8591;DHT22;4333;48.322;14.340;2022-12-18T12:03:42;2.20;58.00
8591;DHT22;4333;48.322;14.340;2022-12-18T12:09:11;2.90;50.40
8591;DHT22;4333;48.322;14.340;2022-12-18T12:20:16;3.60;45.90
8591;DHT22;4333;48.322;14.340;2022-12-18T12:25:46;3.50;41.30
8591;DHT22;4333;48.322;14.340;2022-12-18T12:31:12;3.40;38.00
8591;DHT22;4333;48.322;14.340;2022-12-18T12:39:02;3.30;40.30
8591;DHT22;4333;48.322;14.340;2022-12-18T12:41:32;3.20;45.40
8591;DHT22;4333;48.322;14.340;2022-12-18T12:46:54;3.10;49.80
8591;DHT22;4333;48.322;14.340;2022-12-18T12:49:29;3.00;48.10
8591;DHT22;4333;48.322;14.340;2022-12-18T12:52:12;2.80;43.90
8591;DHT22;4333;48.322;14.340;2022-12-18T12:54:40;2.00;49.00
8591;DHT22;4333;48.322;14.340;2022-12-18T12:57:34;1.30;56.10
8591;DHT22;4333;48.322;14.340;2022-12-18T13:08:22;0.80;62.20
8591;DHT22;4333;48.322;14.340;2022-12-18T13:10:48;0.50;69.30
8591;DHT22;4333;48.322;14.340;2022-12-18T13:13:15;0.90;77.90
8591;DHT22;4333;48.322;14.340;2022-12-18T13:16:08;1.20;69.90
8591;DHT22;4333;48.322;14.340;2022-12-18T13:18:36;1.10;62.70
8591;DHT22;4333;48.322;14.340;2022-12-18T13:23:51;0.60;66.90
8591;DHT22;4333;48.322;14.340;2022-12-18T13:34:17;0.50;80.40
8591;DHT22;4333;48.322;14.340;2022-12-18T13:36:43;0.50;80.70
8591;DHT22;4333;48.322;14.340;2022-12-18T13:41:45;0.30;80.60
8591;DHT22;4333;48.322;14.340;2022-12-18T13:46:58;-0.30;87.10
8591;DHT22;4333;48.322;14.340;2022-12-18T13:52:03;-0.70;94.80
8591;DHT22;4333;48.322;14.340;2022-12-18T13:54:40;-0.70;96.70
8591;DHT22;4333;48.322;14.340;2022-12-18T13:57:33;-0.70;95.90
8591;DHT22;4333;48.322;14.340;2022-12-18T14:00:30;-0.90;94.90
8591;DHT22;4333;48.322;14.340;2022-12-18T14:02:58;-0.60;97.40
8591;DHT22;4333;48.322;14.340;2022-12-18T14:07:52;-1.00;95.10
8591;DHT22;4333;48.322;14.340;2022-12-18T14:10:19;-1.10;96.70
8591;DHT22;4333;48.322;14.340;2022-12-18T14:12:48;-1.00;99.40
8591;DHT22;4333;48.322;14.340;2022-12-18T14:15:30;-0.80;99.80
8591;DHT22;4333;48.322;14.340;2022-12-18T14:18:18;-0.40;99.90
8591;DHT22;4333;48.322;14.340;2022-12-18T14:20:50;-0.20;97.20
8591;DHT22;4333;48.322;14.340;2022-12-18T14:23:32;-0.20;94.30
8591;DHT22;4333;48.322;14.340;2022-12-18T14:26:00;-0.20;95.00
8591;DHT22;4333;48.322;14.340;2022-12-18T14:28:26;-0.30;94.40
8591;DHT22;4333;48.322;14.340;2022-12-18T14:30:53;-0.40;94.70
8591;DHT22;4333;48.322;14.340;2022-12-18T14:33:22;-0.40;95.20
8591;DHT22;4333;48.322;14.340;2022-12-18T14:36:01;-0.50;96.20
8591;DHT22;4333;48.322;14.340;2022-12-18T14:38:39;-0.60;96.00
8591;DHT22;4333;48.322;14.340;2022-12-18T14:41:13;-0.70;97.50
8591;DHT22;4333;48.322;14.340;2022-12-18T14:43:41;-0.70;97.50
8591;DHT22;4333;48.322;14.340;2022-12-18T14:49:33;-1.10;97.80
8591;DHT22;4333;48.322;14.340;2022-12-18T14:52:04;-1.20;99.90
8591;DHT22;4333;48.322;14.340;2022-12-18T14:54:31;-1.40;99.40
8591;DHT22;4333;48.322;14.340;2022-12-18T14:57:25;-1.50;99.90
8591;DHT22;4333;48.322;14.340;2022-12-18T14:59:55;-1.50;99.90
8591;DHT22;4333;48.322;14.340;2022-12-18T15:02:28;-1.50;99.90
8591;DHT22;4333;48.322;14.340;2022-12-18T15:07:48;-1.50;99.90
8591;DHT22;4333;48.322;14.340;2022-12-18T15:10:23;-1.70;99.90
8591;DHT22;4333;48.322;14.340;2022-12-18T15:20:44;-1.90;99.90
8591;DHT22;4333;48.322;14.340;2022-12-18T15:23:16;-1.90;99.90
8591;DHT22;4333;48.322;14.340;2022-12-18T15:25:42;-1.80;99.90
8591;DHT22;4333;48.322;14.340;2022-12-18T15:28:50;-1.80;99.90
8591;DHT22;4333;48.322;14.340;2022-12-18T15:36:59;-2.00;99.90
8591;DHT22;4333;48.322;14.340;2022-12-18T15:39:25;-2.00;99.90
8591;DHT22;4333;48.322;14.340;2022-12-18T15:41:51;-2.10;99.90
8591;DHT22;4333;48.322;14.340;2022-12-18T15:44:38;-2.50;99.90
8591;DHT22;4333;48.322;14.340;2022-12-18T15:47:10;-2.70;99.90
8591;DHT22;4333;48.322;14.340;2022-12-18T15:49:36;-2.70;99.90
8591;DHT22;4333;48.322;14.340;2022-12-18T15:52:02;-2.70;99.90
8591;DHT22;4333;48.322;14.340;2022-12-18T15:54:28;-2.70;99.90
8591;DHT22;4333;48.322;14.340;2022-12-18T15:57:13;-2.70;99.90
8591;DHT22;4333;48.322;14.340;2022-12-18T15:59:53;-2.60;99.90
8591;DHT22;4333;48.322;14.340;2022-12-18T16:02:22;-2.70;99.90
8591;DHT22;4333;48.322;14.340;2022-12-18T16:04:53;-2.90;99.90
8591;DHT22;4333;48.322;14.340;2022-12-18T16:07:19;-2.90;99.90
8591;DHT22;4333;48.322;14.340;2022-12-18T16:09:47;-2.90;99.90
8591;DHT22;4333;48.322;14.340;2022-12-18T16:12:22;-2.90;99.90
8591;DHT22;4333;48.322;14.340;2022-12-18T16:14:49;-2.90;99.90
8591;DHT22;4333;48.322;14.340;2022-12-18T16:17:15;-2.90;99.90
8591;DHT22;4333;48.322;14.340;2022-12-18T16:19:41;-2.90;99.90
8591;DHT22;4333;48.322;14.340;2022-12-18T16:22:18;-2.80;99.90
8591;DHT22;4333;48.322;14.340;2022-12-18T16:24:44;-2.80;99.90
8591;DHT22;4333;48.322;14.340;2022-12-18T16:27:12;-2.80;99.90
8591;DHT22;4333;48.322;14.340;2022-12-18T16:29:38;-2.80;99.90
8591;DHT22;4333;48.322;14.340;2022-12-18T16:32:04;-2.70;99.90
8591;DHT22;4333;48.322;14.340;2022-12-18T16:34:32;-2.70;99.90
8591;DHT22;4333;48.322;14.340;2022-12-18T16:37:01;-2.70;99.90
8591;DHT22;4333;48.322;14.340;2022-12-18T16:39:27;-2.80;99.90
8591;DHT22;4333;48.322;14.340;2022-12-18T16:41:56;-2.90;99.90
8591;DHT22;4333;48.322;14.340;2022-12-18T16:44:22;-2.90;99.90
8591;DHT22;4333;48.322;14.340;2022-12-18T16:46:48;-2.90;99.90
8591;DHT22;4333;48.322;14.340;2022-12-18T16:49:15;-2.90;99.90
8591;DHT22;4333;48.322;14.340;2022-12-18T16:51:42;-2.90;99.90
8591;DHT22;4333;48.322;14.340;2022-12-18T16:54:10;-2.90;99.90
8591;DHT22;4333;48.322;14.340;2022-12-18T16:56:36;-3.00;99.90
8591;DHT22;4333;48.322;14.340;2022-12-18T16:59:03;-3.10;99.90
8591;DHT22;4333;48.322;14.340;2022-12-18T17:01:30;-3.10;99.90
8591;DHT22;4333;48.322;14.340;2022-12-18T17:04:01;-3.10;99.90
8591;DHT22;4333;48.322;14.340;2022-12-18T17:06:30;-3.10;99.90
8591;DHT22;4333;48.322;14.340;2022-12-18T17:08:56;-3.10;99.90
8591;DHT22;4333;48.322;14.340;2022-12-18T17:11:24;-3.10;99.90
8591;DHT22;4333;48.322;14.340;2022-12-18T17:13:51;-3.10;99.90
8591;DHT22;4333;48.322;14.340;2022-12-18T17:16:17;-3.20;99.90
8591;DHT22;4333;48.322;14.340;2022-12-18T17:18:43;-3.10;99.90
8591;DHT22;4333;48.322;14.340;2022-12-18T17:21:10;-3.10;99.90
8591;DHT22;4333;48.322;14.340;2022-12-18T17:23:36;-3.10;99.90
8591;DHT22;4333;48.322;14.340;2022-12-18T17:26:03;-3.10;99.90
8591;DHT22;4333;48.322;14.340;2022-12-18T17:28:32;-3.20;99.90
8591;DHT22;4333;48.322;14.340;2022-12-18T17:30:59;-3.20;99.90
8591;DHT22;4333;48.322;14.340;2022-12-18T17:33:26;-3.20;99.90
8591;DHT22;4333;48.322;14.340;2022-12-18T17:35:52;-3.20;99.90
8591;DHT22;4333;48.322;14.340;2022-12-18T17:38:19;-3.20;99.90
8591;DHT22;4333;48.322;14.340;2022-12-18T17:40:45;-3.10;99.90
8591;DHT22;4333;48.322;14.340;2022-12-18T17:43:11;-3.10;99.90
8591;DHT22;4333;48.322;14.340;2022-12-18T17:45:39;-3.10;99.90
8591;DHT22;4333;48.322;14.340;2022-12-18T17:48:06;-3.10;99.90
8591;DHT22;4333;48.322;14.340;2022-12-18T17:50:33;-3.10;99.90
8591;DHT22;4333;48.322;14.340;2022-12-18T17:52:59;-3.20;99.90
8591;DHT22;4333;48.322;14.340;2022-12-18T17:55:25;-3.10;99.90
8591;DHT22;4333;48.322;14.340;2022-12-18T17:57:51;-3.10;99.90
8591;DHT22;4333;48.322;14.340;2022-12-18T18:00:17;-3.10;99.90
8591;DHT22;4333;48.322;14.340;2022-12-18T18:02:43;-3.10;99.90
8591;DHT22;4333;48.322;14.340;2022-12-18T18:05:09;-3.10;99.90
8591;DHT22;4333;48.322;14.340;2022-12-18T18:07:36;-3.10;99.90
8591;DHT22;4333;48.322;14.340;2022-12-18T18:10:03;-3.10;99.90
8591;DHT22;4333;48.322;14.340;2022-12-18T18:12:29;-3.10;99.90
8591;DHT22;4333;48.322;14.340;2022-12-18T18:15:13;-3.10;99.90